Aérodrome :
LOGIN :

S'inscrire | Disclaimer

   EN    FR    IT 

 










Légende :    VFR   VFR Marginal   IFR   IFR Intensif   IFR Très Intensif
Visi : 
Plafond : 
>= 8 km
>= 3000ft
5 à 8 km
1000 à 3000 ft
1500m à 5 km
500 à 1000 ft
800 à 1500m
200 à 500 ft
< 800m
< 200 ft
Symboles :   Orages  Brouillard  Fortes neiges  Fortes précipitations  Vent > 20 kt
SIGMETs :   Divers  Orages  Givrage  Turbulence  Onde Orograph.  Cendres Volcan.







- Altitude de l'aérodrome : 1188 ft


LKLN - Plzen Line

DERNIER METAR :
  • 211900Z AUTO 32006KT 260V040 9999 FEW041 BKN085 18/10 Q1016

METARs EXPIRÉS :
  • 211800Z AUTO VRB07KT 9999 BKN060 20/10 Q1015
  • 211700Z AUTO 32008KT 240V030 9999 SCT087 21/12 Q1014

TAF N/A
Pas de NOTAMs connus pour ce terrain.
2 SIGMETs publiés pour la FIR Praha (LKAA) :
 
Orages en lignes de grains
LKAA SIGMET 3 VALID 211900/212100 LKPW
LKAA PRAHA FIR SQL TS OBS WI N5003 E01840 - N4905 E01756 - N4841 E01641 - N4848 E01552 - N4951 E01714 - N5003 E01840 TOP FL390 MOV NE 20KT NC=
Orages en lignes de grains
LKAA SIGMET 2 VALID 211700/211900 LKPW
LKAA PRAHA FIR SQL TS OBS WI N5010 E01746 - N4845 E01550 - N4846 E01450 - N4949 E01541 - N5024 E01652 - N5010 E01746 TOP FL390 MOV NE 20KT NC=



MET'MAP, la Météo Aéronautique d'un coup d'oeil ! - Copyright ORBIFLY Décembre 2007 - Disclaimer

ORBIFLY MET'MAP TEAM :

Programmation & Développement : Alexandra Zaïnal
Conception & Développement : Baudouin d'Aumeries
Co-Programmation & Développement : Marc-Olivier Méhu
Soutien technique & logistique : Manuel Goepfert

Contact : metmap@orbifly.com




SOURCES & CREDITS :

   NOAA